sensor_id;sensor_type;location;lat;lon;timestamp;P1;P2;P0
39955;PMS5003;25631;51.516;-0.470;2022-09-09T00:01:35;4;3;
39955;PMS5003;25631;51.516;-0.470;2022-09-09T00:04:21;4;3;
39955;PMS5003;25631;51.516;-0.470;2022-09-09T00:07:04;3;2;
39955;PMS5003;25631;51.516;-0.470;2022-09-09T00:09:45;2;2;
39955;PMS5003;25631;51.516;-0.470;2022-09-09T00:12:25;2;2;
39955;PMS5003;25631;51.516;-0.470;2022-09-09T00:15:11;2;2;
39955;PMS5003;25631;51.516;-0.470;2022-09-09T00:17:50;3;2;
39955;PMS5003;25631;51.516;-0.470;2022-09-09T00:20:33;3;2;
39955;PMS5003;25631;51.516;-0.470;2022-09-09T00:23:15;4;3;
39955;PMS5003;25631;51.516;-0.470;2022-09-09T00:26:01;4;3;
39955;PMS5003;25631;51.516;-0.470;2022-09-09T00:28:44;3;3;
39955;PMS5003;25631;51.516;-0.470;2022-09-09T00:31:26;3;3;
39955;PMS5003;25631;51.516;-0.470;2022-09-09T00:34:08;3;3;
39955;PMS5003;25631;51.516;-0.470;2022-09-09T00:36:48;3;3;
39955;PMS5003;25631;51.516;-0.470;2022-09-09T00:39:30;3;3;
39955;PMS5003;25631;51.516;-0.470;2022-09-09T00:42:13;3;3;
39955;PMS5003;25631;51.516;-0.470;2022-09-09T00:44:53;3;3;
39955;PMS5003;25631;51.516;-0.470;2022-09-09T00:47:38;3;3;
39955;PMS5003;25631;51.516;-0.470;2022-09-09T00:50:27;3;3;
39955;PMS5003;25631;51.516;-0.470;2022-09-09T00:53:15;3;3;
39955;PMS5003;25631;51.516;-0.470;2022-09-09T00:56:05;3;3;
39955;PMS5003;25631;51.516;-0.470;2022-09-09T00:58:49;3;3;
39955;PMS5003;25631;51.516;-0.470;2022-09-09T01:01:35;2;2;
39955;PMS5003;25631;51.516;-0.470;2022-09-09T01:04:13;2;2;
39955;PMS5003;25631;51.516;-0.470;2022-09-09T01:06:55;9;7;
39955;PMS5003;25631;51.516;-0.470;2022-09-09T01:09:42;9;7;
39955;PMS5003;25631;51.516;-0.470;2022-09-09T01:12:30;7;7;
39955;PMS5003;25631;51.516;-0.470;2022-09-09T01:15:16;7;7;
39955;PMS5003;25631;51.516;-0.470;2022-09-09T01:17:59;7;7;
39955;PMS5003;25631;51.516;-0.470;2022-09-09T01:20:43;7;7;
39955;PMS5003;25631;51.516;-0.470;2022-09-09T01:23:30;7;7;
39955;PMS5003;25631;51.516;-0.470;2022-09-09T01:26:20;7;7;
39955;PMS5003;25631;51.516;-0.470;2022-09-09T01:29:00;8;8;
39955;PMS5003;25631;51.516;-0.470;2022-09-09T01:31:38;8;8;
39955;PMS5003;25631;51.516;-0.470;2022-09-09T01:34:16;8;8;
39955;PMS5003;25631;51.516;-0.470;2022-09-09T01:36:55;8;8;
39955;PMS5003;25631;51.516;-0.470;2022-09-09T01:39:36;8;8;
39955;PMS5003;25631;51.516;-0.470;2022-09-09T01:42:14;8;8;
39955;PMS5003;25631;51.516;-0.470;2022-09-09T01:44:52;8;8;
39955;PMS5003;25631;51.516;-0.470;2022-09-09T01:47:28;8;8;
39955;PMS5003;25631;51.516;-0.470;2022-09-09T01:50:05;5;4;
39955;PMS5003;25631;51.516;-0.470;2022-09-09T01:52:46;6;5;
39955;PMS5003;25631;51.516;-0.470;2022-09-09T01:55:28;6;5;
39955;PMS5003;25631;51.516;-0.470;2022-09-09T01:58:10;6;5;
39955;PMS5003;25631;51.516;-0.470;2022-09-09T02:00:56;5;4;
39955;PMS5003;25631;51.516;-0.470;2022-09-09T02:03:41;5;4;
39955;PMS5003;25631;51.516;-0.470;2022-09-09T02:06:26;4;3;
39955;PMS5003;25631;51.516;-0.470;2022-09-09T02:09:07;4;3;
39955;PMS5003;25631;51.516;-0.470;2022-09-09T02:11:48;4;3;
39955;PMS5003;25631;51.516;-0.470;2022-09-09T02:14:33;4;3;
39955;PMS5003;25631;51.516;-0.470;2022-09-09T02:17:16;4;3;
39955;PMS5003;25631;51.516;-0.470;2022-09-09T02:19:59;4;3;
39955;PMS5003;25631;51.516;-0.470;2022-09-09T02:22:41;4;3;
39955;PMS5003;25631;51.516;-0.470;2022-09-09T02:25:21;4;3;
39955;PMS5003;25631;51.516;-0.470;2022-09-09T02:28:00;4;3;
39955;PMS5003;25631;51.516;-0.470;2022-09-09T02:30:39;4;3;
39955;PMS5003;25631;51.516;-0.470;2022-09-09T02:33:18;5;5;
39955;PMS5003;25631;51.516;-0.470;2022-09-09T02:35:55;5;5;
39955;PMS5003;25631;51.516;-0.470;2022-09-09T02:38:35;5;5;
39955;PMS5003;25631;51.516;-0.470;2022-09-09T02:41:16;5;5;
39955;PMS5003;25631;51.516;-0.470;2022-09-09T02:43:53;5;5;
39955;PMS5003;25631;51.516;-0.470;2022-09-09T02:46:35;5;5;
39955;PMS5003;25631;51.516;-0.470;2022-09-09T02:49:21;4;4;
39955;PMS5003;25631;51.516;-0.470;2022-09-09T02:52:07;4;4;
39955;PMS5003;25631;51.516;-0.470;2022-09-09T02:54:49;4;4;
39955;PMS5003;25631;51.516;-0.470;2022-09-09T02:57:30;3;3;
39955;PMS5003;25631;51.516;-0.470;2022-09-09T03:00:09;3;3;
39955;PMS5003;25631;51.516;-0.470;2022-09-09T03:02:47;3;3;
39955;PMS5003;25631;51.516;-0.470;2022-09-09T03:05:23;3;3;
39955;PMS5003;25631;51.516;-0.470;2022-09-09T03:08:00;3;3;
39955;PMS5003;25631;51.516;-0.470;2022-09-09T03:10:36;3;3;
39955;PMS5003;25631;51.516;-0.470;2022-09-09T03:13:13;4;3;
39955;PMS5003;25631;51.516;-0.470;2022-09-09T03:15:49;5;4;
39955;PMS5003;25631;51.516;-0.470;2022-09-09T03:18:25;5;4;
39955;PMS5003;25631;51.516;-0.470;2022-09-09T03:21:02;5;4;
39955;PMS5003;25631;51.516;-0.470;2022-09-09T03:23:38;5;4;
39955;PMS5003;25631;51.516;-0.470;2022-09-09T03:26:15;5;4;
39955;PMS5003;25631;51.516;-0.470;2022-09-09T03:28:51;5;4;
39955;PMS5003;25631;51.516;-0.470;2022-09-09T03:31:28;5;4;
39955;PMS5003;25631;51.516;-0.470;2022-09-09T03:34:04;5;4;
39955;PMS5003;25631;51.516;-0.470;2022-09-09T03:36:40;5;4;
39955;PMS5003;25631;51.516;-0.470;2022-09-09T03:39:17;4;3;
39955;PMS5003;25631;51.516;-0.470;2022-09-09T03:41:53;4;3;
39955;PMS5003;25631;51.516;-0.470;2022-09-09T03:44:29;4;3;
39955;PMS5003;25631;51.516;-0.470;2022-09-09T03:47:06;3;2;
39955;PMS5003;25631;51.516;-0.470;2022-09-09T03:49:42;3;2;
39955;PMS5003;25631;51.516;-0.470;2022-09-09T03:52:19;3;2;
39955;PMS5003;25631;51.516;-0.470;2022-09-09T03:54:55;3;2;
39955;PMS5003;25631;51.516;-0.470;2022-09-09T03:57:31;5;4;
39955;PMS5003;25631;51.516;-0.470;2022-09-09T04:00:09;5;4;
39955;PMS5003;25631;51.516;-0.470;2022-09-09T04:02:46;5;4;
39955;PMS5003;25631;51.516;-0.470;2022-09-09T04:05:22;5;4;
39955;PMS5003;25631;51.516;-0.470;2022-09-09T04:07:58;5;4;
39955;PMS5003;25631;51.516;-0.470;2022-09-09T04:10:35;5;4;
39955;PMS5003;25631;51.516;-0.470;2022-09-09T04:13:12;5;4;
39955;PMS5003;25631;51.516;-0.470;2022-09-09T04:15:50;5;4;
39955;PMS5003;25631;51.516;-0.470;2022-09-09T04:18:28;5;4;
39955;PMS5003;25631;51.516;-0.470;2022-09-09T04:21:05;4;4;
39955;PMS5003;25631;51.516;-0.470;2022-09-09T04:23:42;4;4;
39955;PMS5003;25631;51.516;-0.470;2022-09-09T04:26:18;4;4;
39955;PMS5003;25631;51.516;-0.470;2022-09-09T04:28:54;4;3;
39955;PMS5003;25631;51.516;-0.470;2022-09-09T04:31:31;4;3;
39955;PMS5003;25631;51.516;-0.470;2022-09-09T04:34:07;4;3;
39955;PMS5003;25631;51.516;-0.470;2022-09-09T04:36:44;3;3;
39955;PMS5003;25631;51.516;-0.470;2022-09-09T04:39:20;2;1;
39955;PMS5003;25631;51.516;-0.470;2022-09-09T04:41:57;3;2;
39955;PMS5003;25631;51.516;-0.470;2022-09-09T04:44:33;3;2;
39955;PMS5003;25631;51.516;-0.470;2022-09-09T04:47:10;3;2;
39955;PMS5003;25631;51.516;-0.470;2022-09-09T04:49:47;3;2;
39955;PMS5003;25631;51.516;-0.470;2022-09-09T04:52:23;2;2;
39955;PMS5003;25631;51.516;-0.470;2022-09-09T04:54:59;2;2;
39955;PMS5003;25631;51.516;-0.470;2022-09-09T04:57:36;2;2;
39955;PMS5003;25631;51.516;-0.470;2022-09-09T05:00:12;2;2;
39955;PMS5003;25631;51.516;-0.470;2022-09-09T05:02:50;2;2;
39955;PMS5003;25631;51.516;-0.470;2022-09-09T05:05:26;2;2;
39955;PMS5003;25631;51.516;-0.470;2022-09-09T05:08:03;1;1;
39955;PMS5003;25631;51.516;-0.470;2022-09-09T05:10:40;1;1;
39955;PMS5003;25631;51.516;-0.470;2022-09-09T05:13:17;1;1;
39955;PMS5003;25631;51.516;-0.470;2022-09-09T05:15:53;0;0;
39955;PMS5003;25631;51.516;-0.470;2022-09-09T05:18:31;1;1;
39955;PMS5003;25631;51.516;-0.470;2022-09-09T05:21:07;2;2;
39955;PMS5003;25631;51.516;-0.470;2022-09-09T05:23:44;2;2;
39955;PMS5003;25631;51.516;-0.470;2022-09-09T05:26:21;2;1;
39955;PMS5003;25631;51.516;-0.470;2022-09-09T05:28:58;2;1;
39955;PMS5003;25631;51.516;-0.470;2022-09-09T05:31:34;2;1;
39955;PMS5003;25631;51.516;-0.470;2022-09-09T05:34:11;2;1;
39955;PMS5003;25631;51.516;-0.470;2022-09-09T05:36:47;2;1;
39955;PMS5003;25631;51.516;-0.470;2022-09-09T05:39:24;2;1;
39955;PMS5003;25631;51.516;-0.470;2022-09-09T05:42:00;2;2;
39955;PMS5003;25631;51.516;-0.470;2022-09-09T05:44:36;2;2;
39955;PMS5003;25631;51.516;-0.470;2022-09-09T05:47:12;2;2;
39955;PMS5003;25631;51.516;-0.470;2022-09-09T05:49:49;3;2;
39955;PMS5003;25631;51.516;-0.470;2022-09-09T05:52:25;3;2;
39955;PMS5003;25631;51.516;-0.470;2022-09-09T05:55:02;3;2;
39955;PMS5003;25631;51.516;-0.470;2022-09-09T05:57:38;3;2;
39955;PMS5003;25631;51.516;-0.470;2022-09-09T06:00:15;3;2;
39955;PMS5003;25631;51.516;-0.470;2022-09-09T06:02:51;3;2;
39955;PMS5003;25631;51.516;-0.470;2022-09-09T06:05:28;4;3;
39955;PMS5003;25631;51.516;-0.470;2022-09-09T06:08:04;4;3;
39955;PMS5003;25631;51.516;-0.470;2022-09-09T06:10:41;5;4;
39955;PMS5003;25631;51.516;-0.470;2022-09-09T06:13:17;6;5;
39955;PMS5003;25631;51.516;-0.470;2022-09-09T06:15:54;5;5;
39955;PMS5003;25631;51.516;-0.470;2022-09-09T06:18:30;4;4;
39955;PMS5003;25631;51.516;-0.470;2022-09-09T06:21:08;5;5;
39955;PMS5003;25631;51.516;-0.470;2022-09-09T06:23:48;5;5;
39955;PMS5003;25631;51.516;-0.470;2022-09-09T06:26:25;5;5;
39955;PMS5003;25631;51.516;-0.470;2022-09-09T06:29:03;6;5;
39955;PMS5003;25631;51.516;-0.470;2022-09-09T06:31:40;6;5;
39955;PMS5003;25631;51.516;-0.470;2022-09-09T06:34:16;6;6;
39955;PMS5003;25631;51.516;-0.470;2022-09-09T06:36:52;6;5;
39955;PMS5003;25631;51.516;-0.470;2022-09-09T06:39:29;6;5;
39955;PMS5003;25631;51.516;-0.470;2022-09-09T06:42:05;6;5;
39955;PMS5003;25631;51.516;-0.470;2022-09-09T06:44:42;2;2;
39955;PMS5003;25631;51.516;-0.470;2022-09-09T06:47:18;3;3;
39955;PMS5003;25631;51.516;-0.470;2022-09-09T06:49:54;2;2;
39955;PMS5003;25631;51.516;-0.470;2022-09-09T06:52:31;2;2;
39955;PMS5003;25631;51.516;-0.470;2022-09-09T06:55:07;2;2;
39955;PMS5003;25631;51.516;-0.470;2022-09-09T06:57:44;3;3;
39955;PMS5003;25631;51.516;-0.470;2022-09-09T07:00:20;3;3;
39955;PMS5003;25631;51.516;-0.470;2022-09-09T07:02:56;4;4;
39955;PMS5003;25631;51.516;-0.470;2022-09-09T07:05:32;4;4;
39955;PMS5003;25631;51.516;-0.470;2022-09-09T07:08:09;3;3;
39955;PMS5003;25631;51.516;-0.470;2022-09-09T07:10:46;3;3;
39955;PMS5003;25631;51.516;-0.470;2022-09-09T07:13:23;3;3;
39955;PMS5003;25631;51.516;-0.470;2022-09-09T07:16:03;4;4;
39955;PMS5003;25631;51.516;-0.470;2022-09-09T07:18:40;5;5;
39955;PMS5003;25631;51.516;-0.470;2022-09-09T07:21:17;5;5;
39955;PMS5003;25631;51.516;-0.470;2022-09-09T07:23:54;5;5;
39955;PMS5003;25631;51.516;-0.470;2022-09-09T07:26:31;3;3;
39955;PMS5003;25631;51.516;-0.470;2022-09-09T07:29:07;3;3;
39955;PMS5003;25631;51.516;-0.470;2022-09-09T07:31:44;2;2;
39955;PMS5003;25631;51.516;-0.470;2022-09-09T07:34:20;2;2;
39955;PMS5003;25631;51.516;-0.470;2022-09-09T07:36:57;2;2;
39955;PMS5003;25631;51.516;-0.470;2022-09-09T07:39:33;2;2;
39955;PMS5003;25631;51.516;-0.470;2022-09-09T07:42:09;2;2;
39955;PMS5003;25631;51.516;-0.470;2022-09-09T07:44:46;2;2;
39955;PMS5003;25631;51.516;-0.470;2022-09-09T07:47:22;3;3;
39955;PMS5003;25631;51.516;-0.470;2022-09-09T07:49:59;3;3;
39955;PMS5003;25631;51.516;-0.470;2022-09-09T07:52:35;3;3;
39955;PMS5003;25631;51.516;-0.470;2022-09-09T07:55:11;3;3;
39955;PMS5003;25631;51.516;-0.470;2022-09-09T07:57:48;3;3;
39955;PMS5003;25631;51.516;-0.470;2022-09-09T08:00:24;3;3;
39955;PMS5003;25631;51.516;-0.470;2022-09-09T08:03:00;3;3;
39955;PMS5003;25631;51.516;-0.470;2022-09-09T08:05:37;3;3;
39955;PMS5003;25631;51.516;-0.470;2022-09-09T08:08:13;0;0;
39955;PMS5003;25631;51.516;-0.470;2022-09-09T08:10:50;0;0;
39955;PMS5003;25631;51.516;-0.470;2022-09-09T08:13:26;0;0;
39955;PMS5003;25631;51.516;-0.470;2022-09-09T08:16:03;0;0;
39955;PMS5003;25631;51.516;-0.470;2022-09-09T08:18:41;0;0;
39955;PMS5003;25631;51.516;-0.470;2022-09-09T08:21:19;1;1;
39955;PMS5003;25631;51.516;-0.470;2022-09-09T08:23:58;1;1;
39955;PMS5003;25631;51.516;-0.470;2022-09-09T08:26:36;1;1;
39955;PMS5003;25631;51.516;-0.470;2022-09-09T08:29:14;1;1;
39955;PMS5003;25631;51.516;-0.470;2022-09-09T08:31:52;1;1;
39955;PMS5003;25631;51.516;-0.470;2022-09-09T08:34:30;1;1;
39955;PMS5003;25631;51.516;-0.470;2022-09-09T08:37:07;2;1;
39955;PMS5003;25631;51.516;-0.470;2022-09-09T08:39:43;2;1;
39955;PMS5003;25631;51.516;-0.470;2022-09-09T08:42:25;2;1;
39955;PMS5003;25631;51.516;-0.470;2022-09-09T08:45:19;2;1;
39955;PMS5003;25631;51.516;-0.470;2022-09-09T08:48:06;2;1;
39955;PMS5003;25631;51.516;-0.470;2022-09-09T08:50:52;2;2;
39955;PMS5003;25631;51.516;-0.470;2022-09-09T08:53:29;2;2;
39955;PMS5003;25631;51.516;-0.470;2022-09-09T08:56:14;1;1;
39955;PMS5003;25631;51.516;-0.470;2022-09-09T08:58:57;1;1;
39955;PMS5003;25631;51.516;-0.470;2022-09-09T09:01:40;1;1;
39955;PMS5003;25631;51.516;-0.470;2022-09-09T09:04:27;1;1;
39955;PMS5003;25631;51.516;-0.470;2022-09-09T09:07:16;1;1;
39955;PMS5003;25631;51.516;-0.470;2022-09-09T09:10:01;1;1;
39955;PMS5003;25631;51.516;-0.470;2022-09-09T09:12:44;1;1;
39955;PMS5003;25631;51.516;-0.470;2022-09-09T09:15:23;1;1;
39955;PMS5003;25631;51.516;-0.470;2022-09-09T09:18:02;1;1;
39955;PMS5003;25631;51.516;-0.470;2022-09-09T09:20:41;1;1;
39955;PMS5003;25631;51.516;-0.470;2022-09-09T09:23:26;1;1;
39955;PMS5003;25631;51.516;-0.470;2022-09-09T09:26:11;1;1;
39955;PMS5003;25631;51.516;-0.470;2022-09-09T09:28:48;1;1;
39955;PMS5003;25631;51.516;-0.470;2022-09-09T09:31:24;1;1;
39955;PMS5003;25631;51.516;-0.470;2022-09-09T09:34:00;0;0;
39955;PMS5003;25631;51.516;-0.470;2022-09-09T09:36:39;0;0;
39955;PMS5003;25631;51.516;-0.470;2022-09-09T09:39:22;0;0;
39955;PMS5003;25631;51.516;-0.470;2022-09-09T09:42:00;0;0;
39955;PMS5003;25631;51.516;-0.470;2022-09-09T09:44:45;0;0;
39955;PMS5003;25631;51.516;-0.470;2022-09-09T09:47:22;0;0;
39955;PMS5003;25631;51.516;-0.470;2022-09-09T09:49:59;0;0;
39955;PMS5003;25631;51.516;-0.470;2022-09-09T09:52:36;0;0;
39955;PMS5003;25631;51.516;-0.470;2022-09-09T09:55:13;0;0;
39955;PMS5003;25631;51.516;-0.470;2022-09-09T09:57:50;0;0;
39955;PMS5003;25631;51.516;-0.470;2022-09-09T10:00:27;0;0;
39955;PMS5003;25631;51.516;-0.470;2022-09-09T10:03:13;0;0;
39955;PMS5003;25631;51.516;-0.470;2022-09-09T10:05:58;0;0;
39955;PMS5003;25631;51.516;-0.470;2022-09-09T10:08:43;0;0;
39955;PMS5003;25631;51.516;-0.470;2022-09-09T10:11:25;0;0;
39955;PMS5003;25631;51.516;-0.470;2022-09-09T10:14:16;0;0;
39955;PMS5003;25631;51.516;-0.470;2022-09-09T10:17:00;1;1;
39955;PMS5003;25631;51.516;-0.470;2022-09-09T10:19:51;1;1;
39955;PMS5003;25631;51.516;-0.470;2022-09-09T10:22:42;1;1;
39955;PMS5003;25631;51.516;-0.470;2022-09-09T10:25:26;1;1;
39955;PMS5003;25631;51.516;-0.470;2022-09-09T10:28:12;1;1;
39955;PMS5003;25631;51.516;-0.470;2022-09-09T10:31:09;1;1;
39955;PMS5003;25631;51.516;-0.470;2022-09-09T10:33:56;1;1;
39955;PMS5003;25631;51.516;-0.470;2022-09-09T10:36:43;1;1;
39955;PMS5003;25631;51.516;-0.470;2022-09-09T10:39:29;1;1;
39955;PMS5003;25631;51.516;-0.470;2022-09-09T10:42:12;1;1;
39955;PMS5003;25631;51.516;-0.470;2022-09-09T10:44:54;1;1;
39955;PMS5003;25631;51.516;-0.470;2022-09-09T10:47:43;1;1;
39955;PMS5003;25631;51.516;-0.470;2022-09-09T10:50:38;1;1;
39955;PMS5003;25631;51.516;-0.470;2022-09-09T10:53:24;1;1;
39955;PMS5003;25631;51.516;-0.470;2022-09-09T10:56:11;1;1;
39955;PMS5003;25631;51.516;-0.470;2022-09-09T10:58:55;2;2;
39955;PMS5003;25631;51.516;-0.470;2022-09-09T11:01:37;2;2;
39955;PMS5003;25631;51.516;-0.470;2022-09-09T11:04:20;2;2;
39955;PMS5003;25631;51.516;-0.470;2022-09-09T11:07:02;2;2;
39955;PMS5003;25631;51.516;-0.470;2022-09-09T11:09:45;2;2;
39955;PMS5003;25631;51.516;-0.470;2022-09-09T11:12:27;2;2;
39955;PMS5003;25631;51.516;-0.470;2022-09-09T11:15:08;2;2;
39955;PMS5003;25631;51.516;-0.470;2022-09-09T11:17:53;2;2;
39955;PMS5003;25631;51.516;-0.470;2022-09-09T11:20:34;2;2;
39955;PMS5003;25631;51.516;-0.470;2022-09-09T11:23:11;2;2;
39955;PMS5003;25631;51.516;-0.470;2022-09-09T11:25:52;1;1;
39955;PMS5003;25631;51.516;-0.470;2022-09-09T11:28:37;1;1;
39955;PMS5003;25631;51.516;-0.470;2022-09-09T11:31:33;1;1;
39955;PMS5003;25631;51.516;-0.470;2022-09-09T11:34:22;1;1;
39955;PMS5003;25631;51.516;-0.470;2022-09-09T11:37:17;2;2;
39955;PMS5003;25631;51.516;-0.470;2022-09-09T11:40:14;2;2;
39955;PMS5003;25631;51.516;-0.470;2022-09-09T11:43:03;2;2;
39955;PMS5003;25631;51.516;-0.470;2022-09-09T11:45:50;2;2;
39955;PMS5003;25631;51.516;-0.470;2022-09-09T11:48:31;1;1;
39955;PMS5003;25631;51.516;-0.470;2022-09-09T11:51:09;1;1;
39955;PMS5003;25631;51.516;-0.470;2022-09-09T11:53:48;1;1;
39955;PMS5003;25631;51.516;-0.470;2022-09-09T11:56:27;2;2;
39955;PMS5003;25631;51.516;-0.470;2022-09-09T11:59:06;2;2;
39955;PMS5003;25631;51.516;-0.470;2022-09-09T12:01:56;2;2;
39955;PMS5003;25631;51.516;-0.470;2022-09-09T12:04:35;2;2;
39955;PMS5003;25631;51.516;-0.470;2022-09-09T12:07:24;2;2;
39955;PMS5003;25631;51.516;-0.470;2022-09-09T12:10:19;2;2;
39955;PMS5003;25631;51.516;-0.470;2022-09-09T12:13:07;2;2;
39955;PMS5003;25631;51.516;-0.470;2022-09-09T12:15:51;2;2;
39955;PMS5003;25631;51.516;-0.470;2022-09-09T12:18:32;2;2;
39955;PMS5003;25631;51.516;-0.470;2022-09-09T12:21:12;1;1;
39955;PMS5003;25631;51.516;-0.470;2022-09-09T12:23:55;5;4;
39955;PMS5003;25631;51.516;-0.470;2022-09-09T12:26:37;5;4;
39955;PMS5003;25631;51.516;-0.470;2022-09-09T12:29:22;5;4;
39955;PMS5003;25631;51.516;-0.470;2022-09-09T12:32:06;5;4;
39955;PMS5003;25631;51.516;-0.470;2022-09-09T12:34:47;5;4;
39955;PMS5003;25631;51.516;-0.470;2022-09-09T12:37:27;5;4;
39955;PMS5003;25631;51.516;-0.470;2022-09-09T12:40:18;5;4;
39955;PMS5003;25631;51.516;-0.470;2022-09-09T12:42:58;4;4;
39955;PMS5003;25631;51.516;-0.470;2022-09-09T12:45:34;4;4;
39955;PMS5003;25631;51.516;-0.470;2022-09-09T12:48:16;4;4;
39955;PMS5003;25631;51.516;-0.470;2022-09-09T12:50:55;4;3;
39955;PMS5003;25631;51.516;-0.470;2022-09-09T12:53:32;4;3;
39955;PMS5003;25631;51.516;-0.470;2022-09-09T12:56:19;4;3;
39955;PMS5003;25631;51.516;-0.470;2022-09-09T12:58:57;4;3;
39955;PMS5003;25631;51.516;-0.470;2022-09-09T13:01:35;4;3;
39955;PMS5003;25631;51.516;-0.470;2022-09-09T13:04:19;4;3;
39955;PMS5003;25631;51.516;-0.470;2022-09-09T13:07:05;2;2;
39955;PMS5003;25631;51.516;-0.470;2022-09-09T13:09:42;2;2;
39955;PMS5003;25631;51.516;-0.470;2022-09-09T13:12:19;2;2;
39955;PMS5003;25631;51.516;-0.470;2022-09-09T13:14:58;2;2;
39955;PMS5003;25631;51.516;-0.470;2022-09-09T13:17:34;2;2;
39955;PMS5003;25631;51.516;-0.470;2022-09-09T13:20:16;2;2;
39955;PMS5003;25631;51.516;-0.470;2022-09-09T13:22:53;2;2;
39955;PMS5003;25631;51.516;-0.470;2022-09-09T13:25:31;2;2;
39955;PMS5003;25631;51.516;-0.470;2022-09-09T13:28:18;2;2;
39955;PMS5003;25631;51.516;-0.470;2022-09-09T13:30:58;2;2;
39955;PMS5003;25631;51.516;-0.470;2022-09-09T13:33:35;2;2;
39955;PMS5003;25631;51.516;-0.470;2022-09-09T13:36:13;2;2;
39955;PMS5003;25631;51.516;-0.470;2022-09-09T13:38:53;2;2;
39955;PMS5003;25631;51.516;-0.470;2022-09-09T13:41:32;2;2;
39955;PMS5003;25631;51.516;-0.470;2022-09-09T13:44:15;2;2;
39955;PMS5003;25631;51.516;-0.470;2022-09-09T13:46:59;2;2;
39955;PMS5003;25631;51.516;-0.470;2022-09-09T13:49:37;3;3;
39955;PMS5003;25631;51.516;-0.470;2022-09-09T13:52:15;3;3;
39955;PMS5003;25631;51.516;-0.470;2022-09-09T13:54:52;3;3;
39955;PMS5003;25631;51.516;-0.470;2022-09-09T13:57:29;3;3;
39955;PMS5003;25631;51.516;-0.470;2022-09-09T14:00:05;3;3;
39955;PMS5003;25631;51.516;-0.470;2022-09-09T14:02:47;3;3;
39955;PMS5003;25631;51.516;-0.470;2022-09-09T14:05:23;3;3;
39955;PMS5003;25631;51.516;-0.470;2022-09-09T14:08:00;3;3;
39955;PMS5003;25631;51.516;-0.470;2022-09-09T14:10:38;4;4;
39955;PMS5003;25631;51.516;-0.470;2022-09-09T14:13:15;4;4;
39955;PMS5003;25631;51.516;-0.470;2022-09-09T14:15:51;4;4;
39955;PMS5003;25631;51.516;-0.470;2022-09-09T14:18:27;4;4;
39955;PMS5003;25631;51.516;-0.470;2022-09-09T14:21:04;4;4;
39955;PMS5003;25631;51.516;-0.470;2022-09-09T14:23:40;4;4;
39955;PMS5003;25631;51.516;-0.470;2022-09-09T14:26:17;4;4;
39955;PMS5003;25631;51.516;-0.470;2022-09-09T14:28:53;4;4;
39955;PMS5003;25631;51.516;-0.470;2022-09-09T14:31:29;23;21;
39955;PMS5003;25631;51.516;-0.470;2022-09-09T14:34:06;25;24;
39955;PMS5003;25631;51.516;-0.470;2022-09-09T14:36:42;25;23;
39955;PMS5003;25631;51.516;-0.470;2022-09-09T14:39:18;28;26;
39955;PMS5003;25631;51.516;-0.470;2022-09-09T14:41:55;29;27;
39955;PMS5003;25631;51.516;-0.470;2022-09-09T14:44:31;29;27;
39955;PMS5003;25631;51.516;-0.470;2022-09-09T14:47:08;29;27;
39955;PMS5003;25631;51.516;-0.470;2022-09-09T14:49:44;30;29;
39955;PMS5003;25631;51.516;-0.470;2022-09-09T14:52:20;30;29;
39955;PMS5003;25631;51.516;-0.470;2022-09-09T14:54:57;30;29;
39955;PMS5003;25631;51.516;-0.470;2022-09-09T14:57:33;32;31;
39955;PMS5003;25631;51.516;-0.470;2022-09-09T15:00:10;32;31;
39955;PMS5003;25631;51.516;-0.470;2022-09-09T15:02:47;32;31;
39955;PMS5003;25631;51.516;-0.470;2022-09-09T15:05:23;36;34;
39955;PMS5003;25631;51.516;-0.470;2022-09-09T15:07:59;36;34;
39955;PMS5003;25631;51.516;-0.470;2022-09-09T15:10:39;1;0;
39955;PMS5003;25631;51.516;-0.470;2022-09-09T15:13:16;1;0;
39955;PMS5003;25631;51.516;-0.470;2022-09-09T15:15:52;1;0;
39955;PMS5003;25631;51.516;-0.470;2022-09-09T15:18:28;1;0;
39955;PMS5003;25631;51.516;-0.470;2022-09-09T15:21:05;2;1;
39955;PMS5003;25631;51.516;-0.470;2022-09-09T15:23:41;2;1;
39955;PMS5003;25631;51.516;-0.470;2022-09-09T15:26:18;1;1;
39955;PMS5003;25631;51.516;-0.470;2022-09-09T15:28:55;0;0;
39955;PMS5003;25631;51.516;-0.470;2022-09-09T15:31:32;0;0;
39955;PMS5003;25631;51.516;-0.470;2022-09-09T15:34:08;2;0;
39955;PMS5003;25631;51.516;-0.470;2022-09-09T15:36:45;2;0;
39955;PMS5003;25631;51.516;-0.470;2022-09-09T15:39:21;2;0;
39955;PMS5003;25631;51.516;-0.470;2022-09-09T15:41:58;1;0;
39955;PMS5003;25631;51.516;-0.470;2022-09-09T15:44:41;1;0;
39955;PMS5003;25631;51.516;-0.470;2022-09-09T15:47:18;1;0;
39955;PMS5003;25631;51.516;-0.470;2022-09-09T15:49:55;2;2;
39955;PMS5003;25631;51.516;-0.470;2022-09-09T15:52:31;1;1;
39955;PMS5003;25631;51.516;-0.470;2022-09-09T15:55:07;1;1;
39955;PMS5003;25631;51.516;-0.470;2022-09-09T15:57:44;1;1;
39955;PMS5003;25631;51.516;-0.470;2022-09-09T16:00:21;2;2;
39955;PMS5003;25631;51.516;-0.470;2022-09-09T16:02:57;3;2;
39955;PMS5003;25631;51.516;-0.470;2022-09-09T16:05:34;3;2;
39955;PMS5003;25631;51.516;-0.470;2022-09-09T16:08:10;3;2;
39955;PMS5003;25631;51.516;-0.470;2022-09-09T16:10:46;1;0;
39955;PMS5003;25631;51.516;-0.470;2022-09-09T16:13:23;1;0;
39955;PMS5003;25631;51.516;-0.470;2022-09-09T16:15:59;1;0;
39955;PMS5003;25631;51.516;-0.470;2022-09-09T16:18:36;2;2;
39955;PMS5003;25631;51.516;-0.470;2022-09-09T16:21:16;2;2;
39955;PMS5003;25631;51.516;-0.470;2022-09-09T16:23:53;2;2;
39955;PMS5003;25631;51.516;-0.470;2022-09-09T16:26:32;2;2;
39955;PMS5003;25631;51.516;-0.470;2022-09-09T16:29:09;2;2;
39955;PMS5003;25631;51.516;-0.470;2022-09-09T16:31:45;4;4;
39955;PMS5003;25631;51.516;-0.470;2022-09-09T16:34:22;4;4;
39955;PMS5003;25631;51.516;-0.470;2022-09-09T16:36:59;4;4;
39955;PMS5003;25631;51.516;-0.470;2022-09-09T16:39:35;4;4;
39955;PMS5003;25631;51.516;-0.470;2022-09-09T16:42:11;4;4;
39955;PMS5003;25631;51.516;-0.470;2022-09-09T16:44:48;5;4;
39955;PMS5003;25631;51.516;-0.470;2022-09-09T16:47:24;5;4;
39955;PMS5003;25631;51.516;-0.470;2022-09-09T16:50:00;5;4;
39955;PMS5003;25631;51.516;-0.470;2022-09-09T16:52:37;3;3;
39955;PMS5003;25631;51.516;-0.470;2022-09-09T16:55:13;3;3;
39955;PMS5003;25631;51.516;-0.470;2022-09-09T16:57:49;3;3;
39955;PMS5003;25631;51.516;-0.470;2022-09-09T17:00:26;3;2;
39955;PMS5003;25631;51.516;-0.470;2022-09-09T17:03:02;3;2;
39955;PMS5003;25631;51.516;-0.470;2022-09-09T17:05:39;3;2;
39955;PMS5003;25631;51.516;-0.470;2022-09-09T17:08:16;3;2;
39955;PMS5003;25631;51.516;-0.470;2022-09-09T17:10:52;4;3;
39955;PMS5003;25631;51.516;-0.470;2022-09-09T17:13:29;2;2;
39955;PMS5003;25631;51.516;-0.470;2022-09-09T17:16:07;3;3;
39955;PMS5003;25631;51.516;-0.470;2022-09-09T17:18:43;3;3;
39955;PMS5003;25631;51.516;-0.470;2022-09-09T17:21:22;3;3;
39955;PMS5003;25631;51.516;-0.470;2022-09-09T17:24:00;3;3;
39955;PMS5003;25631;51.516;-0.470;2022-09-09T17:26:36;3;3;
39955;PMS5003;25631;51.516;-0.470;2022-09-09T17:29:13;3;3;
39955;PMS5003;25631;51.516;-0.470;2022-09-09T17:31:49;3;3;
39955;PMS5003;25631;51.516;-0.470;2022-09-09T17:34:25;3;3;
39955;PMS5003;25631;51.516;-0.470;2022-09-09T17:37:02;3;3;
39955;PMS5003;25631;51.516;-0.470;2022-09-09T17:39:39;3;3;
39955;PMS5003;25631;51.516;-0.470;2022-09-09T17:42:15;3;3;
39955;PMS5003;25631;51.516;-0.470;2022-09-09T17:44:52;3;3;
39955;PMS5003;25631;51.516;-0.470;2022-09-09T17:47:28;3;3;
39955;PMS5003;25631;51.516;-0.470;2022-09-09T17:50:05;3;3;
39955;PMS5003;25631;51.516;-0.470;2022-09-09T17:52:41;3;3;
39955;PMS5003;25631;51.516;-0.470;2022-09-09T17:55:18;3;3;